createdAt,value
2023-03-13T00:01:14.131Z,55.33
2023-03-13T00:03:41.405Z,56.33
2023-03-13T00:06:08.833Z,56.22
2023-03-13T00:08:36.114Z,55.19
2023-03-13T00:11:04.774Z,54.13
2023-03-13T00:13:31.715Z,55.49
2023-03-13T00:16:12.901Z,55.64
2023-03-13T00:18:44.995Z,55.73
2023-03-13T00:21:12.145Z,56.76
2023-03-13T00:23:40.405Z,56.17
2023-03-13T00:26:10.003Z,55.17
2023-03-13T00:28:39.239Z,54.65
2023-03-13T00:31:19.012Z,56.76
2023-03-13T00:33:48.616Z,55.81
2023-03-13T00:36:18.720Z,56.59
2023-03-13T00:38:46.812Z,56.64
2023-03-13T00:41:25.424Z,57.59
2023-03-13T00:43:53.274Z,57.90
2023-03-13T00:46:22.961Z,56.52
2023-03-13T00:48:51.085Z,56.53
2023-03-13T00:51:19.375Z,56.87
2023-03-13T00:53:49.022Z,56.32
2023-03-13T00:56:17.992Z,55.92
2023-03-13T00:58:46.671Z,55.71
2023-03-13T01:01:29.634Z,55.63
2023-03-13T01:03:59.092Z,56.38
2023-03-13T01:06:29.459Z,55.71
2023-03-13T01:08:58.460Z,57.11
2023-03-13T01:11:31.103Z,56.60
2023-03-13T01:14:01.262Z,56.94
2023-03-13T01:16:30.407Z,57.48
2023-03-13T01:19:01.168Z,56.69
2023-03-13T01:21:28.795Z,57.29
2023-03-13T01:23:56.666Z,56.91
2023-03-13T01:26:25.000Z,57.34
2023-03-13T01:28:52.450Z,56.26
2023-03-13T01:31:20.958Z,56.66
2023-03-13T01:33:50.218Z,54.38
2023-03-13T01:36:19.105Z,55.67
2023-03-13T01:38:58.438Z,55.40
2023-03-13T01:41:27.934Z,55.27
2023-03-13T01:43:57.746Z,54.43
2023-03-13T01:46:30.581Z,55.05
2023-03-13T01:49:20.507Z,55.44
2023-03-13T01:52:10.467Z,56.25
2023-03-13T01:55:04.295Z,55.28
2023-03-13T01:57:35.743Z,56.49
2023-03-13T02:00:16.712Z,54.49
2023-03-13T02:02:49.121Z,52.99
2023-03-13T02:05:20.245Z,54.31
2023-03-13T02:08:03.319Z,55.56
2023-03-13T02:10:32.001Z,55.75
2023-03-13T02:13:02.818Z,56.15
2023-03-13T02:15:31.443Z,55.54
2023-03-13T02:18:00.268Z,54.85
2023-03-13T02:20:27.887Z,55.36
2023-03-13T02:23:07.944Z,55.32
2023-03-13T02:25:43.018Z,55.70
2023-03-13T02:28:19.736Z,55.08
2023-03-13T02:30:50.065Z,54.54
2023-03-13T02:33:20.096Z,55.29
2023-03-13T02:35:48.449Z,54.22
2023-03-13T02:38:24.110Z,54.48
2023-03-13T02:40:53.635Z,55.71
2023-03-13T02:43:28.003Z,56.39
2023-03-13T02:46:07.821Z,56.72
2023-03-13T02:48:43.866Z,55.40
2023-03-13T02:51:31.086Z,55.71
2023-03-13T02:54:06.840Z,54.18
2023-03-13T02:56:35.903Z,55.66
2023-03-13T02:59:04.488Z,56.40
2023-03-13T03:01:32.881Z,57.86
2023-03-13T03:04:00.220Z,57.73
2023-03-13T03:06:27.384Z,55.15
2023-03-13T03:08:55.593Z,56.84
2023-03-13T03:11:23.022Z,57.63
2023-03-13T03:13:56.346Z,58.05
2023-03-13T03:16:24.327Z,58.87
2023-03-13T03:18:51.347Z,58.72
2023-03-13T03:21:18.414Z,58.80
2023-03-13T03:23:45.411Z,57.75
2023-03-13T03:26:12.377Z,57.77
2023-03-13T03:28:39.571Z,58.72
2023-03-13T03:31:13.212Z,58.69
2023-03-13T03:33:42.205Z,57.85
2023-03-13T03:36:17.733Z,57.65
2023-03-13T03:38:46.213Z,57.43
2023-03-13T03:41:16.846Z,57.99
2023-03-13T03:43:44.101Z,59.12
2023-03-13T03:46:15.750Z,58.36
2023-03-13T03:48:43.229Z,58.34
2023-03-13T03:51:11.941Z,59.24
2023-03-13T03:53:41.596Z,58.95
2023-03-13T03:56:09.181Z,58.11
2023-03-13T03:58:40.822Z,58.23
2023-03-13T04:01:23.053Z,58.82
2023-03-13T04:03:50.078Z,59.33
2023-03-13T04:06:17.110Z,59.21
2023-03-13T04:08:45.660Z,59.36
2023-03-13T04:11:16.094Z,60.09
2023-03-13T04:13:48.568Z,60.35
2023-03-13T04:16:15.680Z,59.72
2023-03-13T04:18:43.601Z,60.17
2023-03-13T04:21:10.811Z,60.33
2023-03-13T04:23:43.318Z,60.43
2023-03-13T04:26:10.638Z,59.59
2023-03-13T04:28:39.323Z,59.10
2023-03-13T04:31:08.114Z,59.60
2023-03-13T04:33:58.414Z,60.30
2023-03-13T04:36:43.755Z,60.26
2023-03-13T04:39:32.966Z,60.32
2023-03-13T04:42:18.608Z,61.07
2023-03-13T04:44:58.194Z,60.80
2023-03-13T04:47:47.436Z,60.50
2023-03-13T04:50:33.036Z,59.94
2023-03-13T04:53:18.436Z,61.73
2023-03-13T04:56:17.160Z,59.74
2023-03-13T04:59:06.740Z,55.63
2023-03-13T05:01:52.433Z,56.05
2023-03-13T05:04:42.414Z,57.41
2023-03-13T05:07:32.591Z,57.33
2023-03-13T05:10:10.501Z,58.94
2023-03-13T05:12:44.871Z,59.35
2023-03-13T05:15:30.938Z,59.02
2023-03-13T05:18:24.550Z,58.89
2023-03-13T05:21:05.426Z,59.75
2023-03-13T05:23:52.719Z,59.78
2023-03-13T05:26:40.009Z,59.53
2023-03-13T05:29:25.023Z,59.95
2023-03-13T05:32:14.498Z,60.35
2023-03-13T05:34:53.301Z,60.41
2023-03-13T05:37:43.833Z,59.54
2023-03-13T05:40:33.945Z,59.41
2023-03-13T05:43:06.858Z,57.63
2023-03-13T05:45:49.465Z,56.96
2023-03-13T05:48:31.657Z,56.76
2023-03-13T05:51:04.888Z,57.08
2023-03-13T05:53:48.579Z,58.39
2023-03-13T05:56:45.186Z,57.03
2023-03-13T05:59:33.652Z,57.93
2023-03-13T06:02:24.033Z,57.52
2023-03-13T06:04:51.561Z,56.13
2023-03-13T06:07:18.824Z,57.84
2023-03-13T06:09:45.921Z,57.18
2023-03-13T06:12:14.168Z,56.95
2023-03-13T06:14:41.236Z,57.88
2023-03-13T06:17:25.712Z,56.44
2023-03-13T06:19:52.653Z,57.86
2023-03-13T06:22:19.801Z,58.68
2023-03-13T06:24:49.699Z,57.15
2023-03-13T06:27:17.667Z,57.68
2023-03-13T06:29:44.645Z,58.28
2023-03-13T06:32:11.761Z,58.09
2023-03-13T06:34:38.996Z,58.56
2023-03-13T06:37:06.139Z,57.16
2023-03-13T06:39:33.245Z,56.81
2023-03-13T06:42:00.225Z,57.85
2023-03-13T06:44:27.423Z,56.26
2023-03-13T06:46:54.570Z,58.39
2023-03-13T06:49:21.623Z,61.56
2023-03-13T06:51:48.560Z,56.37
2023-03-13T06:54:15.679Z,56.82
2023-03-13T06:56:42.848Z,58.95
2023-03-13T06:59:10.936Z,58.74
2023-03-13T07:01:37.870Z,57.91
2023-03-13T07:04:04.986Z,59.09
2023-03-13T07:06:32.100Z,60.58
2023-03-13T07:08:59.137Z,58.72
2023-03-13T07:11:26.167Z,58.82
2023-03-13T07:14:06.567Z,57.37
2023-03-13T07:16:42.127Z,59.55
2023-03-13T07:19:09.204Z,58.59
2023-03-13T07:21:36.404Z,60.89
2023-03-13T07:24:04.202Z,58.82
2023-03-13T07:26:31.328Z,59.21
2023-03-13T07:28:58.329Z,58.71
2023-03-13T07:31:25.501Z,56.48
2023-03-13T07:33:56.675Z,53.78
2023-03-13T07:36:31.136Z,55.00
2023-03-13T07:38:58.190Z,55.71
2023-03-13T07:41:25.188Z,55.50
2023-03-13T07:43:52.346Z,55.71
2023-03-13T07:46:20.505Z,52.07
2023-03-13T07:48:51.393Z,53.50
2023-03-13T07:51:36.892Z,52.33
2023-03-13T07:54:09.418Z,54.01
2023-03-13T07:56:36.452Z,54.81
2023-03-13T07:59:03.637Z,53.00
2023-03-13T08:01:31.401Z,51.91
2023-03-13T08:04:01.377Z,55.25
2023-03-13T08:06:33.765Z,57.23
2023-03-13T08:09:01.675Z,54.37
2023-03-13T08:11:29.422Z,55.85
2023-03-13T08:13:58.675Z,52.91
2023-03-13T08:16:28.496Z,54.79
2023-03-13T08:18:57.717Z,56.32
2023-03-13T08:21:30.439Z,52.44
2023-03-13T08:23:59.830Z,51.84
2023-03-13T08:26:29.379Z,52.06
2023-03-13T08:29:01.547Z,53.22
2023-03-13T08:31:42.527Z,54.54
2023-03-13T08:34:11.517Z,55.54
2023-03-13T08:36:39.775Z,54.54
2023-03-13T08:39:15.451Z,52.67
2023-03-13T08:41:42.573Z,51.99
2023-03-13T08:44:15.257Z,52.57
2023-03-13T08:46:42.602Z,47.74
2023-03-13T08:49:10.860Z,51.24
2023-03-13T08:51:38.357Z,51.69
2023-03-13T08:54:05.656Z,53.96
2023-03-13T08:56:33.620Z,55.21
2023-03-13T08:59:02.686Z,46.98
2023-03-13T09:01:32.139Z,52.93
2023-03-13T09:04:03.651Z,49.98
2023-03-13T09:06:32.322Z,48.13
2023-03-13T09:08:59.479Z,47.89
2023-03-13T09:11:27.404Z,47.64
2023-03-13T09:13:56.266Z,47.68
2023-03-13T09:16:25.638Z,48.65
2023-03-13T09:18:56.200Z,49.08
2023-03-13T09:21:25.780Z,41.41
2023-03-13T09:23:53.367Z,43.77
2023-03-13T09:26:23.318Z,39.78
2023-03-13T09:28:52.543Z,41.24
2023-03-13T09:31:26.255Z,46.13
2023-03-13T09:33:53.987Z,39.37
2023-03-13T09:36:22.912Z,43.55
2023-03-13T09:38:56.395Z,42.55
2023-03-13T09:41:40.706Z,40.36
2023-03-13T09:44:22.992Z,39.03
2023-03-13T09:47:06.299Z,39.37
2023-03-13T09:50:11.708Z,41.83
2023-03-13T09:52:41.227Z,40.31
2023-03-13T09:55:22.312Z,43.19
2023-03-13T09:58:20.057Z,37.98
2023-03-13T10:00:54.053Z,38.54
2023-03-13T10:03:27.465Z,43.22
2023-03-13T10:05:59.664Z,44.60
2023-03-13T10:08:30.754Z,41.97
2023-03-13T10:11:08.427Z,40.88
2023-03-13T10:13:47.853Z,43.00
2023-03-13T10:16:27.199Z,42.49
2023-03-13T10:18:58.449Z,42.32
2023-03-13T10:21:32.954Z,39.55
2023-03-13T10:24:03.961Z,35.01
2023-03-13T10:26:34.957Z,35.84
2023-03-13T10:29:23.860Z,34.67
2023-03-13T10:32:02.412Z,37.02
2023-03-13T10:35:00.578Z,35.97
2023-03-13T10:37:33.560Z,41.97
2023-03-13T10:40:13.163Z,39.02
2023-03-13T10:42:45.998Z,38.57
2023-03-13T10:45:37.310Z,38.68
2023-03-13T10:48:25.711Z,37.61
2023-03-13T10:50:57.755Z,35.84
2023-03-13T10:53:36.855Z,35.99
2023-03-13T10:56:13.882Z,40.38
2023-03-13T10:58:40.964Z,35.96
2023-03-13T11:01:10.842Z,38.75
2023-03-13T11:03:37.900Z,38.70
2023-03-13T11:06:05.106Z,36.85
2023-03-13T11:08:37.223Z,33.63
2023-03-13T11:11:19.172Z,39.64
2023-03-13T11:13:47.170Z,39.40
2023-03-13T11:16:21.002Z,40.28
2023-03-13T11:19:13.353Z,36.70
2023-03-13T11:22:16.527Z,40.19
2023-03-13T11:24:46.821Z,39.35
2023-03-13T11:27:43.055Z,35.24
2023-03-13T11:30:23.102Z,33.33
2023-03-13T11:33:05.345Z,36.08
2023-03-13T11:35:44.571Z,39.71
2023-03-13T11:38:23.912Z,36.77
2023-03-13T11:41:11.183Z,35.09
2023-03-13T11:43:57.105Z,33.36
2023-03-13T11:46:27.461Z,31.88
2023-03-13T11:49:00.717Z,35.66
2023-03-13T11:51:33.479Z,32.03
2023-03-13T11:54:23.312Z,32.36
2023-03-13T11:56:57.862Z,32.74
2023-03-13T11:59:31.006Z,32.71
2023-03-13T12:02:05.752Z,33.57
2023-03-13T12:04:43.949Z,30.83
2023-03-13T12:07:39.715Z,33.37
2023-03-13T12:10:15.826Z,33.60
2023-03-13T12:12:49.728Z,33.94
2023-03-13T12:15:28.473Z,31.96
2023-03-13T12:18:00.331Z,30.90
2023-03-13T12:20:33.738Z,38.14
2023-03-13T12:23:06.695Z,33.54
2023-03-13T12:25:43.675Z,36.51
2023-03-13T12:28:42.040Z,31.11
2023-03-13T12:31:18.317Z,36.38
2023-03-13T12:34:03.606Z,35.92
2023-03-13T12:37:12.617Z,37.56
2023-03-13T12:39:47.947Z,31.31
2023-03-13T12:42:33.918Z,32.36
2023-03-13T12:45:01.181Z,31.19
2023-03-13T12:47:36.752Z,31.24
2023-03-13T12:50:25.096Z,32.01
2023-03-13T12:53:04.246Z,30.87
2023-03-13T12:55:58.541Z,29.24
2023-03-13T12:58:30.957Z,29.28
2023-03-13T13:01:04.403Z,31.51
2023-03-13T13:03:40.276Z,32.54
2023-03-13T13:06:13.820Z,31.63
2023-03-13T13:08:44.364Z,31.18
2023-03-13T13:11:38.565Z,31.97
2023-03-13T13:14:17.810Z,29.25
2023-03-13T13:17:16.728Z,30.21
2023-03-13T13:19:46.668Z,31.74
2023-03-13T13:22:38.881Z,32.78
2023-03-13T13:25:11.938Z,32.15
2023-03-13T13:27:38.858Z,31.71
2023-03-13T13:30:31.889Z,30.87
2023-03-13T13:33:28.364Z,30.35
2023-03-13T13:36:10.859Z,30.64
2023-03-13T13:38:44.120Z,32.04
2023-03-13T13:41:11.060Z,30.64
2023-03-13T13:43:38.915Z,31.68
2023-03-13T13:46:10.875Z,32.52
2023-03-13T13:48:40.128Z,34.40
2023-03-13T13:51:14.322Z,36.29
2023-03-13T13:53:56.460Z,37.66
2023-03-13T13:56:29.595Z,38.26
2023-03-13T13:59:21.571Z,38.29
2023-03-13T14:01:50.734Z,37.18
2023-03-13T14:04:38.141Z,34.01
2023-03-13T14:07:06.737Z,34.06
2023-03-13T14:09:43.273Z,35.65
2023-03-13T14:12:31.959Z,36.77
2023-03-13T14:15:21.826Z,36.64
2023-03-13T14:18:01.452Z,33.21
2023-03-13T14:20:35.010Z,34.60
2023-03-13T14:23:08.493Z,35.41
2023-03-13T14:25:50.269Z,33.24
2023-03-13T14:28:26.047Z,35.08
2023-03-13T14:30:56.962Z,34.11
2023-03-13T14:33:27.919Z,34.79
2023-03-13T14:35:55.766Z,33.97
2023-03-13T14:38:30.119Z,32.26
2023-03-13T14:40:57.275Z,34.46
2023-03-13T14:43:40.447Z,33.62
2023-03-13T14:46:34.177Z,33.39
2023-03-13T14:49:21.668Z,33.85
2023-03-13T14:52:08.893Z,34.54
2023-03-13T14:54:42.294Z,34.56
2023-03-13T14:57:16.540Z,34.64
2023-03-13T14:59:44.314Z,33.64
2023-03-13T15:02:15.671Z,33.87
2023-03-13T15:05:31.232Z,33.07
2023-03-13T15:08:01.654Z,32.76
2023-03-13T15:10:37.001Z,32.94
2023-03-13T15:13:29.634Z,35.21
2023-03-13T15:15:57.202Z,32.09
2023-03-13T15:18:25.623Z,32.97
2023-03-13T15:20:58.779Z,34.63
2023-03-13T15:23:26.420Z,33.36
2023-03-13T15:25:53.652Z,33.86
2023-03-13T15:28:23.926Z,32.99
2023-03-13T15:30:52.684Z,34.13
2023-03-13T15:33:22.242Z,35.91
2023-03-13T15:35:53.393Z,37.34
2023-03-13T15:38:24.497Z,37.10
2023-03-13T15:40:52.410Z,37.43
2023-03-13T15:43:20.989Z,37.45
2023-03-13T15:45:52.347Z,37.48
2023-03-13T15:48:23.867Z,37.92
2023-03-13T15:50:55.503Z,38.67
2023-03-13T15:53:25.995Z,39.57
2023-03-13T15:55:55.040Z,39.66
2023-03-13T15:58:22.583Z,39.43
2023-03-13T16:00:49.912Z,39.89
2023-03-13T16:03:25.623Z,39.58
2023-03-13T16:05:54.669Z,39.97
2023-03-13T16:08:34.806Z,40.36
2023-03-13T16:11:03.374Z,40.52
2023-03-13T16:13:33.572Z,40.68
2023-03-13T16:16:00.652Z,40.48
2023-03-13T16:18:27.852Z,42.17
2023-03-13T16:20:54.921Z,42.44
2023-03-13T16:23:21.877Z,42.40
2023-03-13T16:25:49.510Z,42.97
2023-03-13T16:28:16.703Z,41.92
2023-03-13T16:30:44.075Z,42.20
2023-03-13T16:33:11.676Z,42.93
2023-03-13T16:35:39.591Z,43.08
2023-03-13T16:38:08.779Z,42.96
2023-03-13T16:40:36.312Z,42.98
2023-03-13T16:43:03.821Z,42.09
2023-03-13T16:45:31.045Z,42.09
2023-03-13T16:47:58.181Z,43.10
2023-03-13T16:50:37.498Z,43.04
2023-03-13T16:53:04.843Z,42.60
2023-03-13T16:55:36.859Z,43.28
2023-03-13T16:58:04.534Z,43.39
2023-03-13T17:00:32.492Z,43.50
2023-03-13T17:03:01.466Z,44.15
2023-03-13T17:05:28.889Z,44.15
2023-03-13T17:07:55.971Z,42.46
2023-03-13T17:10:31.370Z,43.06
2023-03-13T17:12:58.815Z,43.29
2023-03-13T17:15:27.293Z,43.47
2023-03-13T17:17:55.006Z,43.42
2023-03-13T17:20:27.634Z,44.84
2023-03-13T17:22:56.443Z,44.40
2023-03-13T17:25:24.424Z,44.39
2023-03-13T17:27:51.715Z,44.81
2023-03-13T17:30:28.044Z,44.95
2023-03-13T17:32:55.253Z,44.38
2023-03-13T17:35:24.296Z,44.22
2023-03-13T17:37:51.995Z,46.08
2023-03-13T17:40:28.366Z,45.41
2023-03-13T17:42:56.518Z,45.41
2023-03-13T17:45:25.564Z,44.39
2023-03-13T17:47:54.443Z,45.99
2023-03-13T17:50:26.548Z,45.43
2023-03-13T17:52:54.328Z,45.88
2023-03-13T17:55:21.747Z,45.62
2023-03-13T17:57:49.681Z,46.74
2023-03-13T18:00:26.214Z,46.89
2023-03-13T18:02:53.407Z,47.07
2023-03-13T18:05:20.659Z,47.32
2023-03-13T18:07:49.280Z,46.93
2023-03-13T18:10:17.456Z,47.87
2023-03-13T18:12:44.619Z,48.19
2023-03-13T18:15:12.445Z,48.61
2023-03-13T18:17:39.818Z,47.55
2023-03-13T18:20:16.688Z,48.17
2023-03-13T18:22:43.934Z,48.51
2023-03-13T18:25:11.950Z,47.63
2023-03-13T18:27:39.702Z,47.25
2023-03-13T18:30:14.866Z,48.29
2023-03-13T18:32:42.232Z,48.05
2023-03-13T18:35:09.636Z,46.79
2023-03-13T18:37:36.884Z,47.96
2023-03-13T18:40:07.719Z,48.02
2023-03-13T18:42:34.872Z,48.43
2023-03-13T18:45:02.040Z,47.61
2023-03-13T18:47:29.265Z,47.87
2023-03-13T18:49:56.303Z,46.56
2023-03-13T18:52:23.391Z,47.03
2023-03-13T18:54:50.523Z,46.40
2023-03-13T18:57:20.094Z,47.29
2023-03-13T18:59:47.261Z,48.00
2023-03-13T19:02:18.992Z,48.05
2023-03-13T19:04:47.326Z,48.82
2023-03-13T19:07:26.778Z,49.03
2023-03-13T19:09:54.663Z,47.68
2023-03-13T19:12:21.688Z,47.33
2023-03-13T19:14:48.781Z,46.94
2023-03-13T19:17:29.667Z,47.67
2023-03-13T19:19:59.736Z,49.01
2023-03-13T19:22:26.842Z,49.78
2023-03-13T19:24:53.947Z,48.11
2023-03-13T19:27:23.918Z,48.83
2023-03-13T19:29:51.204Z,47.49
2023-03-13T19:32:19.346Z,47.99
2023-03-13T19:34:47.164Z,49.09
2023-03-13T19:37:15.623Z,48.02
2023-03-13T19:39:42.993Z,49.01
2023-03-13T19:42:10.067Z,48.77
2023-03-13T19:44:43.055Z,49.38
2023-03-13T19:47:15.762Z,50.36
2023-03-13T19:49:43.145Z,50.58
2023-03-13T19:52:10.486Z,48.65
2023-03-13T19:54:37.524Z,49.07
2023-03-13T19:57:04.653Z,49.08
2023-03-13T19:59:35.321Z,49.09
2023-03-13T20:02:04.438Z,50.21
2023-03-13T20:04:31.603Z,49.98
2023-03-13T20:06:59.211Z,49.80
2023-03-13T20:09:26.225Z,49.52
2023-03-13T20:11:53.460Z,50.70
2023-03-13T20:14:20.670Z,50.99
2023-03-13T20:16:49.331Z,51.26
2023-03-13T20:19:16.488Z,51.90
2023-03-13T20:21:43.818Z,51.87
2023-03-13T20:24:11.220Z,51.62
2023-03-13T20:26:38.379Z,51.48
2023-03-13T20:29:05.715Z,52.17
2023-03-13T20:31:33.054Z,51.18
2023-03-13T20:34:00.776Z,51.59
2023-03-13T20:36:28.390Z,51.74
2023-03-13T20:38:56.157Z,51.19
2023-03-13T20:41:25.930Z,51.33
2023-03-13T20:43:53.677Z,52.61
2023-03-13T20:46:21.874Z,52.13
2023-03-13T20:48:49.185Z,52.27
2023-03-13T20:51:16.389Z,52.18
2023-03-13T20:53:43.645Z,51.44
2023-03-13T20:56:11.919Z,51.77
2023-03-13T20:58:39.573Z,52.10
2023-03-13T21:01:07.844Z,52.45
2023-03-13T21:03:36.176Z,52.67
2023-03-13T21:06:18.115Z,52.24
2023-03-13T21:08:46.641Z,51.53
2023-03-13T21:11:16.266Z,52.38
2023-03-13T21:13:43.523Z,53.77
2023-03-13T21:16:11.410Z,52.92
2023-03-13T21:18:38.417Z,51.80
2023-03-13T21:21:07.648Z,52.26
2023-03-13T21:23:35.013Z,52.82
2023-03-13T21:26:02.002Z,52.99
2023-03-13T21:28:29.682Z,51.08
2023-03-13T21:30:57.033Z,51.47
2023-03-13T21:33:24.702Z,50.98
2023-03-13T21:35:51.966Z,51.66
2023-03-13T21:38:19.014Z,52.33
2023-03-13T21:40:46.175Z,50.94
2023-03-13T21:43:13.236Z,51.57
2023-03-13T21:45:40.285Z,52.68
2023-03-13T21:48:07.343Z,52.62
2023-03-13T21:50:34.501Z,52.80
2023-03-13T21:53:01.514Z,51.86
2023-03-13T21:55:28.629Z,51.79
2023-03-13T21:57:55.664Z,53.02
2023-03-13T22:00:23.098Z,53.16
2023-03-13T22:02:52.004Z,51.23
2023-03-13T22:05:19.237Z,51.74
2023-03-13T22:07:46.422Z,52.13
2023-03-13T22:10:13.480Z,52.37
2023-03-13T22:12:40.654Z,53.04
2023-03-13T22:15:11.610Z,52.38
2023-03-13T22:17:38.612Z,53.45
2023-03-13T22:20:06.601Z,52.80
2023-03-13T22:22:33.695Z,53.40
2023-03-13T22:25:00.901Z,54.04
2023-03-13T22:27:27.975Z,53.62
2023-03-13T22:29:55.313Z,53.72
2023-03-13T22:32:22.420Z,51.53
2023-03-13T22:34:49.651Z,52.26
2023-03-13T22:37:16.706Z,52.86
2023-03-13T22:39:43.650Z,53.30
2023-03-13T22:42:10.675Z,52.89
2023-03-13T22:44:37.710Z,52.85
2023-03-13T22:47:04.712Z,53.74
2023-03-13T22:49:31.828Z,54.13
2023-03-13T22:51:59.590Z,54.95
2023-03-13T22:54:26.671Z,54.97
2023-03-13T22:56:53.875Z,54.41
2023-03-13T22:59:21.000Z,53.81
2023-03-13T23:01:48.297Z,53.26
2023-03-13T23:04:15.842Z,52.80
2023-03-13T23:06:43.678Z,52.57
2023-03-13T23:09:11.028Z,53.04
2023-03-13T23:11:38.335Z,52.77
2023-03-13T23:14:05.390Z,52.21
2023-03-13T23:16:32.827Z,50.45
2023-03-13T23:18:59.954Z,50.91
2023-03-13T23:21:27.024Z,50.66
2023-03-13T23:23:54.779Z,51.22
2023-03-13T23:26:22.060Z,51.84
2023-03-13T23:28:49.321Z,52.37
2023-03-13T23:31:19.528Z,51.60
2023-03-13T23:33:47.641Z,51.71
2023-03-13T23:36:17.737Z,51.25
2023-03-13T23:38:48.688Z,51.88
2023-03-13T23:41:15.769Z,52.16
2023-03-13T23:43:43.174Z,52.04
2023-03-13T23:46:28.494Z,52.36
2023-03-13T23:48:57.477Z,51.97
2023-03-13T23:51:25.960Z,51.89
2023-03-13T23:53:52.994Z,52.17
2023-03-13T23:56:20.287Z,51.96
2023-03-13T23:58:47.376Z,52.48
